sensor_id;sensor_type;location;lat;lon;timestamp;temperature;humidity
19365;DHT22;9818;48.382;10.850;2022-08-25T00:01:49;17.50;99.90
19365;DHT22;9818;48.382;10.850;2022-08-25T00:04:18;17.50;99.90
19365;DHT22;9818;48.382;10.850;2022-08-25T00:06:47;17.40;99.90
19365;DHT22;9818;48.382;10.850;2022-08-25T00:09:18;17.40;99.90
19365;DHT22;9818;48.382;10.850;2022-08-25T00:11:47;17.30;99.90
19365;DHT22;9818;48.382;10.850;2022-08-25T00:14:19;17.30;99.90
19365;DHT22;9818;48.382;10.850;2022-08-25T00:16:48;17.30;99.90
19365;DHT22;9818;48.382;10.850;2022-08-25T00:19:18;17.30;99.90
19365;DHT22;9818;48.382;10.850;2022-08-25T00:21:47;17.30;99.90
19365;DHT22;9818;48.382;10.850;2022-08-25T00:24:16;17.30;99.90
19365;DHT22;9818;48.382;10.850;2022-08-25T00:26:46;17.30;99.90
19365;DHT22;9818;48.382;10.850;2022-08-25T00:29:15;17.20;99.90
19365;DHT22;9818;48.382;10.850;2022-08-25T00:31:47;17.20;99.90
19365;DHT22;9818;48.382;10.850;2022-08-25T00:34:18;17.20;99.90
19365;DHT22;9818;48.382;10.850;2022-08-25T00:36:47;17.20;99.90
19365;DHT22;9818;48.382;10.850;2022-08-25T00:39:19;17.10;99.90
19365;DHT22;9818;48.382;10.850;2022-08-25T00:41:49;17.10;99.90
19365;DHT22;9818;48.382;10.850;2022-08-25T00:44:18;17.00;99.90
19365;DHT22;9818;48.382;10.850;2022-08-25T00:46:50;17.00;99.90
19365;DHT22;9818;48.382;10.850;2022-08-25T00:49:29;17.00;99.90
19365;DHT22;9818;48.382;10.850;2022-08-25T00:52:00;16.90;99.90
19365;DHT22;9818;48.382;10.850;2022-08-25T00:54:30;16.90;99.90
19365;DHT22;9818;48.382;10.850;2022-08-25T00:56:59;16.90;99.90
19365;DHT22;9818;48.382;10.850;2022-08-25T00:59:28;16.80;99.90
19365;DHT22;9818;48.382;10.850;2022-08-25T01:02:00;16.80;99.90
19365;DHT22;9818;48.382;10.850;2022-08-25T01:04:28;16.70;99.90
19365;DHT22;9818;48.382;10.850;2022-08-25T01:06:57;16.70;99.90
19365;DHT22;9818;48.382;10.850;2022-08-25T01:20:32;16.60;99.90
19365;DHT22;9818;48.382;10.850;2022-08-25T01:23:04;16.50;99.90
19365;DHT22;9818;48.382;10.850;2022-08-25T01:25:35;16.40;99.90
19365;DHT22;9818;48.382;10.850;2022-08-25T01:28:06;16.40;99.90
19365;DHT22;9818;48.382;10.850;2022-08-25T01:30:35;16.40;99.90
19365;DHT22;9818;48.382;10.850;2022-08-25T01:33:06;16.40;99.90
19365;DHT22;9818;48.382;10.850;2022-08-25T01:35:35;16.40;99.90
19365;DHT22;9818;48.382;10.850;2022-08-25T01:38:07;16.30;99.90
19365;DHT22;9818;48.382;10.850;2022-08-25T01:40:36;16.30;99.90
19365;DHT22;9818;48.382;10.850;2022-08-25T01:43:06;16.30;99.90
19365;DHT22;9818;48.382;10.850;2022-08-25T01:45:36;16.30;99.90
19365;DHT22;9818;48.382;10.850;2022-08-25T01:48:06;16.30;99.90
19365;DHT22;9818;48.382;10.850;2022-08-25T01:50:35;16.30;99.90
19365;DHT22;9818;48.382;10.850;2022-08-25T01:53:07;16.30;99.90
19365;DHT22;9818;48.382;10.850;2022-08-25T01:55:38;16.30;99.90
19365;DHT22;9818;48.382;10.850;2022-08-25T01:58:20;16.30;99.90
19365;DHT22;9818;48.382;10.850;2022-08-25T02:00:50;16.30;99.90
19365;DHT22;9818;48.382;10.850;2022-08-25T02:03:20;16.30;99.90
19365;DHT22;9818;48.382;10.850;2022-08-25T02:05:49;16.30;99.90
19365;DHT22;9818;48.382;10.850;2022-08-25T02:08:20;16.30;99.90
19365;DHT22;9818;48.382;10.850;2022-08-25T02:10:49;16.30;99.90
19365;DHT22;9818;48.382;10.850;2022-08-25T02:13:18;16.30;99.90
19365;DHT22;9818;48.382;10.850;2022-08-25T02:15:48;16.30;99.90
19365;DHT22;9818;48.382;10.850;2022-08-25T02:18:19;16.30;99.90
19365;DHT22;9818;48.382;10.850;2022-08-25T02:20:47;16.30;99.90
19365;DHT22;9818;48.382;10.850;2022-08-25T02:23:16;16.30;99.90
19365;DHT22;9818;48.382;10.850;2022-08-25T02:25:47;16.30;99.90
19365;DHT22;9818;48.382;10.850;2022-08-25T02:28:16;16.30;99.90
19365;DHT22;9818;48.382;10.850;2022-08-25T02:30:44;16.30;99.90
19365;DHT22;9818;48.382;10.850;2022-08-25T02:33:13;16.30;99.90
19365;DHT22;9818;48.382;10.850;2022-08-25T02:35:41;16.30;99.90
19365;DHT22;9818;48.382;10.850;2022-08-25T02:38:10;16.20;99.90
19365;DHT22;9818;48.382;10.850;2022-08-25T02:40:38;16.20;99.90
19365;DHT22;9818;48.382;10.850;2022-08-25T02:43:09;16.20;99.90
19365;DHT22;9818;48.382;10.850;2022-08-25T02:45:38;16.20;99.90
19365;DHT22;9818;48.382;10.850;2022-08-25T02:48:06;16.20;99.90
19365;DHT22;9818;48.382;10.850;2022-08-25T02:50:35;16.10;99.90
19365;DHT22;9818;48.382;10.850;2022-08-25T02:53:04;16.10;99.90
19365;DHT22;9818;48.382;10.850;2022-08-25T02:55:33;16.00;99.90
19365;DHT22;9818;48.382;10.850;2022-08-25T02:58:01;16.00;99.90
19365;DHT22;9818;48.382;10.850;2022-08-25T03:00:33;15.90;99.90
19365;DHT22;9818;48.382;10.850;2022-08-25T03:03:02;15.90;99.90
19365;DHT22;9818;48.382;10.850;2022-08-25T03:05:30;15.90;99.90
19365;DHT22;9818;48.382;10.850;2022-08-25T03:07:59;16.00;99.90
19365;DHT22;9818;48.382;10.850;2022-08-25T03:10:27;15.90;99.90
19365;DHT22;9818;48.382;10.850;2022-08-25T03:12:56;15.90;99.90
19365;DHT22;9818;48.382;10.850;2022-08-25T03:15:25;15.90;99.90
19365;DHT22;9818;48.382;10.850;2022-08-25T03:17:57;15.90;99.90
19365;DHT22;9818;48.382;10.850;2022-08-25T03:20:26;15.90;99.90
19365;DHT22;9818;48.382;10.850;2022-08-25T03:22:59;15.90;99.90
19365;DHT22;9818;48.382;10.850;2022-08-25T03:25:28;15.90;99.90
19365;DHT22;9818;48.382;10.850;2022-08-25T03:28:08;15.90;99.90
19365;DHT22;9818;48.382;10.850;2022-08-25T03:30:37;15.80;99.90
19365;DHT22;9818;48.382;10.850;2022-08-25T03:33:08;15.80;99.90
19365;DHT22;9818;48.382;10.850;2022-08-25T03:35:39;15.70;99.90
19365;DHT22;9818;48.382;10.850;2022-08-25T03:38:08;15.70;99.90
19365;DHT22;9818;48.382;10.850;2022-08-25T03:40:37;15.70;99.90
19365;DHT22;9818;48.382;10.850;2022-08-25T03:43:05;15.70;99.90
19365;DHT22;9818;48.382;10.850;2022-08-25T03:45:34;15.70;99.90
19365;DHT22;9818;48.382;10.850;2022-08-25T03:48:09;15.70;99.90
19365;DHT22;9818;48.382;10.850;2022-08-25T03:50:42;15.70;99.90
19365;DHT22;9818;48.382;10.850;2022-08-25T03:53:11;15.70;99.90
19365;DHT22;9818;48.382;10.850;2022-08-25T03:55:40;15.70;99.90
19365;DHT22;9818;48.382;10.850;2022-08-25T03:58:08;15.70;99.90
19365;DHT22;9818;48.382;10.850;2022-08-25T04:00:37;15.70;99.90
19365;DHT22;9818;48.382;10.850;2022-08-25T04:03:09;15.70;99.90
19365;DHT22;9818;48.382;10.850;2022-08-25T04:05:37;15.70;99.90
19365;DHT22;9818;48.382;10.850;2022-08-25T04:08:06;15.80;99.90
19365;DHT22;9818;48.382;10.850;2022-08-25T04:10:35;15.70;99.90
19365;DHT22;9818;48.382;10.850;2022-08-25T04:13:03;15.70;99.90
19365;DHT22;9818;48.382;10.850;2022-08-25T04:15:32;15.70;99.90
19365;DHT22;9818;48.382;10.850;2022-08-25T04:18:00;15.80;99.90
19365;DHT22;9818;48.382;10.850;2022-08-25T04:20:31;15.80;99.90
19365;DHT22;9818;48.382;10.850;2022-08-25T04:23:00;15.80;99.90
19365;DHT22;9818;48.382;10.850;2022-08-25T04:25:28;15.80;99.90
19365;DHT22;9818;48.382;10.850;2022-08-25T04:27:57;15.90;99.90
19365;DHT22;9818;48.382;10.850;2022-08-25T04:30:26;15.90;99.90
19365;DHT22;9818;48.382;10.850;2022-08-25T04:32:54;15.90;99.90
19365;DHT22;9818;48.382;10.850;2022-08-25T04:35:23;15.90;99.90
19365;DHT22;9818;48.382;10.850;2022-08-25T04:37:54;15.90;99.90
19365;DHT22;9818;48.382;10.850;2022-08-25T04:40:22;15.90;99.90
19365;DHT22;9818;48.382;10.850;2022-08-25T04:42:51;16.00;99.90
19365;DHT22;9818;48.382;10.850;2022-08-25T04:45:19;16.10;99.90
19365;DHT22;9818;48.382;10.850;2022-08-25T04:47:48;16.70;99.90
19365;DHT22;9818;48.382;10.850;2022-08-25T04:50:17;17.20;99.90
19365;DHT22;9818;48.382;10.850;2022-08-25T04:52:45;17.60;99.90
19365;DHT22;9818;48.382;10.850;2022-08-25T04:55:16;17.90;99.90
19365;DHT22;9818;48.382;10.850;2022-08-25T04:57:45;18.10;99.90
19365;DHT22;9818;48.382;10.850;2022-08-25T05:00:15;18.40;99.90
19365;DHT22;9818;48.382;10.850;2022-08-25T05:02:44;18.80;99.90
19365;DHT22;9818;48.382;10.850;2022-08-25T05:05:14;19.50;99.90
19365;DHT22;9818;48.382;10.850;2022-08-25T05:07:43;19.90;99.90
19365;DHT22;9818;48.382;10.850;2022-08-25T05:10:12;20.10;99.90
19365;DHT22;9818;48.382;10.850;2022-08-25T05:12:44;20.90;99.90
19365;DHT22;9818;48.382;10.850;2022-08-25T05:15:13;21.80;99.90
19365;DHT22;9818;48.382;10.850;2022-08-25T05:17:55;21.60;99.90
19365;DHT22;9818;48.382;10.850;2022-08-25T05:20:24;22.00;99.90
19365;DHT22;9818;48.382;10.850;2022-08-25T05:22:53;22.60;99.90
19365;DHT22;9818;48.382;10.850;2022-08-25T05:25:21;23.40;99.90
19365;DHT22;9818;48.382;10.850;2022-08-25T05:27:53;22.90;99.90
19365;DHT22;9818;48.382;10.850;2022-08-25T05:30:22;22.70;99.90
19365;DHT22;9818;48.382;10.850;2022-08-25T05:32:51;23.40;99.90
19365;DHT22;9818;48.382;10.850;2022-08-25T05:35:19;25.10;99.90
19365;DHT22;9818;48.382;10.850;2022-08-25T05:37:48;24.60;99.90
19365;DHT22;9818;48.382;10.850;2022-08-25T05:40:17;25.30;99.90
19365;DHT22;9818;48.382;10.850;2022-08-25T05:42:46;25.00;99.90
19365;DHT22;9818;48.382;10.850;2022-08-25T05:45:17;24.70;99.90
19365;DHT22;9818;48.382;10.850;2022-08-25T05:47:46;25.00;99.90
19365;DHT22;9818;48.382;10.850;2022-08-25T05:50:17;25.00;99.90
19365;DHT22;9818;48.382;10.850;2022-08-25T05:52:47;25.20;99.90
19365;DHT22;9818;48.382;10.850;2022-08-25T05:55:18;27.50;99.90
19365;DHT22;9818;48.382;10.850;2022-08-25T05:57:47;26.70;99.90
19365;DHT22;9818;48.382;10.850;2022-08-25T06:00:19;26.20;99.90
19365;DHT22;9818;48.382;10.850;2022-08-25T06:02:48;28.40;99.90
19365;DHT22;9818;48.382;10.850;2022-08-25T06:05:18;28.80;99.90
19365;DHT22;9818;48.382;10.850;2022-08-25T06:07:49;27.70;99.90
19365;DHT22;9818;48.382;10.850;2022-08-25T06:10:18;27.70;99.90
19365;DHT22;9818;48.382;10.850;2022-08-25T06:12:47;28.90;99.90
19365;DHT22;9818;48.382;10.850;2022-08-25T06:15:22;28.40;99.90
19365;DHT22;9818;48.382;10.850;2022-08-25T06:17:52;27.50;99.90
19365;DHT22;9818;48.382;10.850;2022-08-25T06:20:25;26.80;99.90
19365;DHT22;9818;48.382;10.850;2022-08-25T06:22:55;27.70;99.90
19365;DHT22;9818;48.382;10.850;2022-08-25T06:25:26;29.20;99.90
19365;DHT22;9818;48.382;10.850;2022-08-25T06:27:58;27.90;99.90
19365;DHT22;9818;48.382;10.850;2022-08-25T06:30:29;27.90;99.90
19365;DHT22;9818;48.382;10.850;2022-08-25T06:32:58;29.40;99.90
19365;DHT22;9818;48.382;10.850;2022-08-25T06:35:27;28.50;99.90
19365;DHT22;9818;48.382;10.850;2022-08-25T06:37:55;28.00;99.90
19365;DHT22;9818;48.382;10.850;2022-08-25T06:40:25;28.70;99.90
19365;DHT22;9818;48.382;10.850;2022-08-25T06:42:53;28.20;99.90
19365;DHT22;9818;48.382;10.850;2022-08-25T06:45:22;27.70;99.90
19365;DHT22;9818;48.382;10.850;2022-08-25T06:47:56;28.00;99.90
19365;DHT22;9818;48.382;10.850;2022-08-25T06:50:25;27.80;99.90
19365;DHT22;9818;48.382;10.850;2022-08-25T06:52:54;28.90;99.90
19365;DHT22;9818;48.382;10.850;2022-08-25T06:55:23;27.80;99.90
19365;DHT22;9818;48.382;10.850;2022-08-25T06:57:52;27.90;99.90
19365;DHT22;9818;48.382;10.850;2022-08-25T07:00:22;28.00;99.90
19365;DHT22;9818;48.382;10.850;2022-08-25T07:02:55;28.30;99.90
19365;DHT22;9818;48.382;10.850;2022-08-25T07:05:26;28.40;99.90
19365;DHT22;9818;48.382;10.850;2022-08-25T07:07:56;29.50;99.90
19365;DHT22;9818;48.382;10.850;2022-08-25T07:10:26;31.00;99.90
19365;DHT22;9818;48.382;10.850;2022-08-25T07:12:55;32.30;99.90
19365;DHT22;9818;48.382;10.850;2022-08-25T07:15:23;30.60;99.90
19365;DHT22;9818;48.382;10.850;2022-08-25T07:17:56;28.70;99.90
19365;DHT22;9818;48.382;10.850;2022-08-25T07:20:25;29.50;99.90
19365;DHT22;9818;48.382;10.850;2022-08-25T07:22:57;29.20;99.90
19365;DHT22;9818;48.382;10.850;2022-08-25T07:25:26;29.40;99.90
19365;DHT22;9818;48.382;10.850;2022-08-25T07:27:59;31.60;99.90
19365;DHT22;9818;48.382;10.850;2022-08-25T07:30:29;32.60;99.90
19365;DHT22;9818;48.382;10.850;2022-08-25T07:33:01;28.30;99.90
19365;DHT22;9818;48.382;10.850;2022-08-25T07:35:30;27.40;99.90
19365;DHT22;9818;48.382;10.850;2022-08-25T07:37:58;28.10;99.90
19365;DHT22;9818;48.382;10.850;2022-08-25T07:40:29;30.80;99.90
19365;DHT22;9818;48.382;10.850;2022-08-25T07:43:01;31.50;99.90
19365;DHT22;9818;48.382;10.850;2022-08-25T07:45:32;30.90;99.90
19365;DHT22;9818;48.382;10.850;2022-08-25T07:48:06;29.50;99.90
19365;DHT22;9818;48.382;10.850;2022-08-25T07:50:36;29.10;99.90
19365;DHT22;9818;48.382;10.850;2022-08-25T07:53:07;29.20;99.90
19365;DHT22;9818;48.382;10.850;2022-08-25T07:55:36;31.20;99.90
19365;DHT22;9818;48.382;10.850;2022-08-25T07:58:06;32.00;99.90
19365;DHT22;9818;48.382;10.850;2022-08-25T08:00:36;30.80;99.90
19365;DHT22;9818;48.382;10.850;2022-08-25T08:03:08;27.50;99.90
19365;DHT22;9818;48.382;10.850;2022-08-25T08:05:41;28.70;99.90
19365;DHT22;9818;48.382;10.850;2022-08-25T08:08:09;32.30;99.90
19365;DHT22;9818;48.382;10.850;2022-08-25T08:10:38;31.30;99.90
19365;DHT22;9818;48.382;10.850;2022-08-25T08:13:07;31.10;99.90
19365;DHT22;9818;48.382;10.850;2022-08-25T08:15:37;31.10;99.90
19365;DHT22;9818;48.382;10.850;2022-08-25T08:18:11;33.40;99.90
19365;DHT22;9818;48.382;10.850;2022-08-25T08:20:42;34.30;99.90
19365;DHT22;9818;48.382;10.850;2022-08-25T08:23:10;35.60;97.60
19365;DHT22;9818;48.382;10.850;2022-08-25T08:25:39;33.00;99.90
19365;DHT22;9818;48.382;10.850;2022-08-25T08:28:07;32.20;99.90
19365;DHT22;9818;48.382;10.850;2022-08-25T08:30:36;33.20;99.90
19365;DHT22;9818;48.382;10.850;2022-08-25T08:33:04;32.80;99.90
19365;DHT22;9818;48.382;10.850;2022-08-25T08:35:35;32.70;99.90
19365;DHT22;9818;48.382;10.850;2022-08-25T08:38:04;32.20;99.90
19365;DHT22;9818;48.382;10.850;2022-08-25T08:40:40;29.90;99.90
19365;DHT22;9818;48.382;10.850;2022-08-25T08:43:32;31.60;99.90
19365;DHT22;9818;48.382;10.850;2022-08-25T08:46:02;32.80;99.90
19365;DHT22;9818;48.382;10.850;2022-08-25T08:48:43;30.00;99.90
19365;DHT22;9818;48.382;10.850;2022-08-25T08:51:21;31.30;99.90
19365;DHT22;9818;48.382;10.850;2022-08-25T08:53:53;30.30;99.90
19365;DHT22;9818;48.382;10.850;2022-08-25T08:56:24;29.50;99.90
19365;DHT22;9818;48.382;10.850;2022-08-25T08:58:54;30.00;99.90
19365;DHT22;9818;48.382;10.850;2022-08-25T09:01:24;29.60;99.90
19365;DHT22;9818;48.382;10.850;2022-08-25T09:03:55;30.50;99.90
19365;DHT22;9818;48.382;10.850;2022-08-25T09:06:29;32.30;99.90
19365;DHT22;9818;48.382;10.850;2022-08-25T09:09:01;33.00;99.90
19365;DHT22;9818;48.382;10.850;2022-08-25T09:11:31;33.20;98.60
19365;DHT22;9818;48.382;10.850;2022-08-25T09:14:15;32.90;96.30
19365;DHT22;9818;48.382;10.850;2022-08-25T09:16:52;30.60;99.90
19365;DHT22;9818;48.382;10.850;2022-08-25T09:20:00;30.00;99.90
19365;DHT22;9818;48.382;10.850;2022-08-25T09:22:42;30.10;99.90
19365;DHT22;9818;48.382;10.850;2022-08-25T09:25:18;31.00;99.90
19365;DHT22;9818;48.382;10.850;2022-08-25T09:27:57;31.70;99.90
19365;DHT22;9818;48.382;10.850;2022-08-25T09:30:34;33.20;99.90
19365;DHT22;9818;48.382;10.850;2022-08-25T09:33:05;33.80;97.00
19365;DHT22;9818;48.382;10.850;2022-08-25T09:35:38;34.50;97.50
19365;DHT22;9818;48.382;10.850;2022-08-25T09:38:11;35.90;93.00
19365;DHT22;9818;48.382;10.850;2022-08-25T09:40:42;33.50;97.60
19365;DHT22;9818;48.382;10.850;2022-08-25T09:43:20;33.00;96.20
19365;DHT22;9818;48.382;10.850;2022-08-25T09:45:58;31.00;99.90
19365;DHT22;9818;48.382;10.850;2022-08-25T09:48:29;29.70;99.90
19365;DHT22;9818;48.382;10.850;2022-08-25T09:51:16;30.50;99.90
19365;DHT22;9818;48.382;10.850;2022-08-25T09:53:51;31.30;99.90
19365;DHT22;9818;48.382;10.850;2022-08-25T09:56:23;31.80;99.90
19365;DHT22;9818;48.382;10.850;2022-08-25T09:58:52;30.90;99.90
19365;DHT22;9818;48.382;10.850;2022-08-25T10:01:22;30.50;99.90
19365;DHT22;9818;48.382;10.850;2022-08-25T10:03:54;31.80;99.90
19365;DHT22;9818;48.382;10.850;2022-08-25T10:06:23;33.40;97.20
19365;DHT22;9818;48.382;10.850;2022-08-25T10:08:57;31.40;99.90
19365;DHT22;9818;48.382;10.850;2022-08-25T10:11:37;32.60;98.90
19365;DHT22;9818;48.382;10.850;2022-08-25T10:14:14;32.10;99.90
19365;DHT22;9818;48.382;10.850;2022-08-25T10:16:44;31.80;99.90
19365;DHT22;9818;48.382;10.850;2022-08-25T10:19:21;30.90;99.90
19365;DHT22;9818;48.382;10.850;2022-08-25T10:22:01;31.10;99.90
19365;DHT22;9818;48.382;10.850;2022-08-25T10:24:32;30.60;99.90
19365;DHT22;9818;48.382;10.850;2022-08-25T10:27:03;30.60;99.90
19365;DHT22;9818;48.382;10.850;2022-08-25T10:29:51;30.10;99.90
19365;DHT22;9818;48.382;10.850;2022-08-25T10:32:24;32.20;99.90
19365;DHT22;9818;48.382;10.850;2022-08-25T10:34:55;30.80;99.90
19365;DHT22;9818;48.382;10.850;2022-08-25T10:37:27;31.80;99.90
19365;DHT22;9818;48.382;10.850;2022-08-25T10:40:06;31.50;99.90
19365;DHT22;9818;48.382;10.850;2022-08-25T10:42:37;30.40;99.90
19365;DHT22;9818;48.382;10.850;2022-08-25T10:45:19;31.00;99.90
19365;DHT22;9818;48.382;10.850;2022-08-25T10:50:45;31.50;99.90
19365;DHT22;9818;48.382;10.850;2022-08-25T10:53:24;32.20;99.90
19365;DHT22;9818;48.382;10.850;2022-08-25T10:55:59;30.00;99.90
19365;DHT22;9818;48.382;10.850;2022-08-25T11:01:32;30.00;99.90
19365;DHT22;9818;48.382;10.850;2022-08-25T11:04:03;30.00;99.90
19365;DHT22;9818;48.382;10.850;2022-08-25T11:06:34;29.00;99.90
19365;DHT22;9818;48.382;10.850;2022-08-25T11:09:05;27.90;99.90
19365;DHT22;9818;48.382;10.850;2022-08-25T11:11:43;28.30;99.90
19365;DHT22;9818;48.382;10.850;2022-08-25T11:14:15;28.90;99.90
19365;DHT22;9818;48.382;10.850;2022-08-25T11:16:46;28.40;99.90
19365;DHT22;9818;48.382;10.850;2022-08-25T11:19:21;27.90;99.90
19365;DHT22;9818;48.382;10.850;2022-08-25T11:21:55;27.30;99.90
19365;DHT22;9818;48.382;10.850;2022-08-25T11:24:41;27.20;99.90
19365;DHT22;9818;48.382;10.850;2022-08-25T11:27:21;27.70;99.90
19365;DHT22;9818;48.382;10.850;2022-08-25T11:29:58;27.40;99.90
19365;DHT22;9818;48.382;10.850;2022-08-25T11:32:27;27.50;99.90
19365;DHT22;9818;48.382;10.850;2022-08-25T11:35:00;28.00;99.90
19365;DHT22;9818;48.382;10.850;2022-08-25T11:37:31;28.00;99.90
19365;DHT22;9818;48.382;10.850;2022-08-25T11:40:13;27.80;99.90
19365;DHT22;9818;48.382;10.850;2022-08-25T11:42:50;27.50;99.90
19365;DHT22;9818;48.382;10.850;2022-08-25T11:45:40;27.50;99.90
19365;DHT22;9818;48.382;10.850;2022-08-25T11:48:13;27.40;99.90
19365;DHT22;9818;48.382;10.850;2022-08-25T11:50:54;27.40;99.90
19365;DHT22;9818;48.382;10.850;2022-08-25T11:53:24;27.40;99.90
19365;DHT22;9818;48.382;10.850;2022-08-25T11:55:53;27.10;99.90
19365;DHT22;9818;48.382;10.850;2022-08-25T11:58:39;27.50;99.90
19365;DHT22;9818;48.382;10.850;2022-08-25T12:01:10;27.80;99.90
19365;DHT22;9818;48.382;10.850;2022-08-25T12:06:28;26.70;99.90
19365;DHT22;9818;48.382;10.850;2022-08-25T12:11:43;27.10;99.90
19365;DHT22;9818;48.382;10.850;2022-08-25T12:14:16;26.90;99.90
19365;DHT22;9818;48.382;10.850;2022-08-25T12:17:04;27.00;99.90
19365;DHT22;9818;48.382;10.850;2022-08-25T12:19:47;27.10;99.90
19365;DHT22;9818;48.382;10.850;2022-08-25T12:24:59;27.70;99.90
19365;DHT22;9818;48.382;10.850;2022-08-25T12:27:32;27.90;99.90
19365;DHT22;9818;48.382;10.850;2022-08-25T12:30:12;27.70;99.90
19365;DHT22;9818;48.382;10.850;2022-08-25T12:35:27;27.90;99.90
19365;DHT22;9818;48.382;10.850;2022-08-25T12:38:00;27.50;99.90
19365;DHT22;9818;48.382;10.850;2022-08-25T12:40:30;28.10;99.90
19365;DHT22;9818;48.382;10.850;2022-08-25T12:43:02;28.20;99.90
19365;DHT22;9818;48.382;10.850;2022-08-25T12:45:39;27.90;99.90
19365;DHT22;9818;48.382;10.850;2022-08-25T12:50:54;27.70;99.90
19365;DHT22;9818;48.382;10.850;2022-08-25T12:53:27;27.70;99.90
19365;DHT22;9818;48.382;10.850;2022-08-25T12:55:59;28.10;99.90
19365;DHT22;9818;48.382;10.850;2022-08-25T12:58:32;28.20;99.90
19365;DHT22;9818;48.382;10.850;2022-08-25T13:01:12;28.00;99.90
19365;DHT22;9818;48.382;10.850;2022-08-25T13:06:30;27.80;99.90
19365;DHT22;9818;48.382;10.850;2022-08-25T13:11:47;27.50;99.90
19365;DHT22;9818;48.382;10.850;2022-08-25T13:14:18;28.20;99.90
19365;DHT22;9818;48.382;10.850;2022-08-25T13:16:56;28.20;99.90
19365;DHT22;9818;48.382;10.850;2022-08-25T13:19:26;28.60;99.90
19365;DHT22;9818;48.382;10.850;2022-08-25T13:21:57;28.50;99.90
19365;DHT22;9818;48.382;10.850;2022-08-25T13:24:30;28.20;99.90
19365;DHT22;9818;48.382;10.850;2022-08-25T13:27:03;27.70;99.90
19365;DHT22;9818;48.382;10.850;2022-08-25T13:29:35;27.70;99.90
19365;DHT22;9818;48.382;10.850;2022-08-25T13:32:07;28.20;99.90
19365;DHT22;9818;48.382;10.850;2022-08-25T13:34:40;28.70;99.90
19365;DHT22;9818;48.382;10.850;2022-08-25T13:37:09;29.30;99.90
19365;DHT22;9818;48.382;10.850;2022-08-25T13:39:50;29.30;99.90
19365;DHT22;9818;48.382;10.850;2022-08-25T13:42:19;29.00;99.90
19365;DHT22;9818;48.382;10.850;2022-08-25T13:44:47;28.80;99.90
19365;DHT22;9818;48.382;10.850;2022-08-25T13:47:30;28.40;99.90
19365;DHT22;9818;48.382;10.850;2022-08-25T13:50:16;28.90;99.90
19365;DHT22;9818;48.382;10.850;2022-08-25T13:52:48;29.20;99.90
19365;DHT22;9818;48.382;10.850;2022-08-25T13:55:22;29.60;99.90
19365;DHT22;9818;48.382;10.850;2022-08-25T13:57:51;29.80;99.90
19365;DHT22;9818;48.382;10.850;2022-08-25T14:00:33;30.20;99.90
19365;DHT22;9818;48.382;10.850;2022-08-25T14:03:05;30.10;99.90
19365;DHT22;9818;48.382;10.850;2022-08-25T14:05:37;30.50;99.90
19365;DHT22;9818;48.382;10.850;2022-08-25T14:08:25;30.20;99.90
19365;DHT22;9818;48.382;10.850;2022-08-25T14:11:05;30.00;99.90
19365;DHT22;9818;48.382;10.850;2022-08-25T14:13:36;29.10;99.90
19365;DHT22;9818;48.382;10.850;2022-08-25T14:16:12;28.60;99.90
19365;DHT22;9818;48.382;10.850;2022-08-25T14:18:50;28.50;99.90
19365;DHT22;9818;48.382;10.850;2022-08-25T14:21:22;28.50;99.90
19365;DHT22;9818;48.382;10.850;2022-08-25T14:23:53;28.40;99.90
19365;DHT22;9818;48.382;10.850;2022-08-25T14:26:22;28.70;99.90
19365;DHT22;9818;48.382;10.850;2022-08-25T14:28:51;28.60;99.90
19365;DHT22;9818;48.382;10.850;2022-08-25T14:31:24;28.50;99.90
19365;DHT22;9818;48.382;10.850;2022-08-25T14:33:59;28.60;99.90
19365;DHT22;9818;48.382;10.850;2022-08-25T14:36:29;28.50;99.90
19365;DHT22;9818;48.382;10.850;2022-08-25T14:38:59;28.70;99.90
19365;DHT22;9818;48.382;10.850;2022-08-25T14:41:31;29.00;99.90
19365;DHT22;9818;48.382;10.850;2022-08-25T14:44:01;28.60;99.90
19365;DHT22;9818;48.382;10.850;2022-08-25T14:46:33;28.10;99.90
19365;DHT22;9818;48.382;10.850;2022-08-25T14:49:09;28.50;99.90
19365;DHT22;9818;48.382;10.850;2022-08-25T14:51:40;28.70;99.90
19365;DHT22;9818;48.382;10.850;2022-08-25T14:54:11;28.30;99.90
19365;DHT22;9818;48.382;10.850;2022-08-25T14:56:43;28.60;99.90
19365;DHT22;9818;48.382;10.850;2022-08-25T14:59:14;28.60;99.90
19365;DHT22;9818;48.382;10.850;2022-08-25T15:01:43;28.90;99.90
19365;DHT22;9818;48.382;10.850;2022-08-25T15:04:17;28.80;99.90
19365;DHT22;9818;48.382;10.850;2022-08-25T15:06:51;28.10;99.90
19365;DHT22;9818;48.382;10.850;2022-08-25T15:09:21;28.20;99.90
19365;DHT22;9818;48.382;10.850;2022-08-25T15:11:49;28.60;99.90
19365;DHT22;9818;48.382;10.850;2022-08-25T15:14:20;28.90;99.90
19365;DHT22;9818;48.382;10.850;2022-08-25T15:16:52;29.10;99.90
19365;DHT22;9818;48.382;10.850;2022-08-25T15:19:25;28.80;99.90
19365;DHT22;9818;48.382;10.850;2022-08-25T15:21:54;28.90;99.90
19365;DHT22;9818;48.382;10.850;2022-08-25T15:24:23;29.00;99.90
19365;DHT22;9818;48.382;10.850;2022-08-25T15:26:55;29.00;99.90
19365;DHT22;9818;48.382;10.850;2022-08-25T15:29:26;29.30;99.90
19365;DHT22;9818;48.382;10.850;2022-08-25T15:31:56;29.60;99.90
19365;DHT22;9818;48.382;10.850;2022-08-25T15:34:27;29.10;99.90
19365;DHT22;9818;48.382;10.850;2022-08-25T15:36:56;29.00;99.90
19365;DHT22;9818;48.382;10.850;2022-08-25T15:39:26;28.80;99.90
19365;DHT22;9818;48.382;10.850;2022-08-25T15:41:55;28.80;99.90
19365;DHT22;9818;48.382;10.850;2022-08-25T15:44:23;28.60;99.90
19365;DHT22;9818;48.382;10.850;2022-08-25T15:46:52;28.80;99.90
19365;DHT22;9818;48.382;10.850;2022-08-25T15:49:21;28.30;99.90
19365;DHT22;9818;48.382;10.850;2022-08-25T15:51:53;28.60;99.90
19365;DHT22;9818;48.382;10.850;2022-08-25T15:54:23;29.30;99.90
19365;DHT22;9818;48.382;10.850;2022-08-25T15:56:53;29.50;99.90
19365;DHT22;9818;48.382;10.850;2022-08-25T15:59:23;29.60;99.90
19365;DHT22;9818;48.382;10.850;2022-08-25T16:01:51;29.50;99.90
19365;DHT22;9818;48.382;10.850;2022-08-25T16:04:21;29.50;99.90
19365;DHT22;9818;48.382;10.850;2022-08-25T16:06:53;29.90;99.90
19365;DHT22;9818;48.382;10.850;2022-08-25T16:09:22;29.70;99.90
19365;DHT22;9818;48.382;10.850;2022-08-25T16:11:51;29.70;99.90
19365;DHT22;9818;48.382;10.850;2022-08-25T16:14:20;29.60;99.90
19365;DHT22;9818;48.382;10.850;2022-08-25T16:16:49;28.90;99.90
19365;DHT22;9818;48.382;10.850;2022-08-25T16:19:17;28.50;99.90
19365;DHT22;9818;48.382;10.850;2022-08-25T16:21:46;28.60;99.90
19365;DHT22;9818;48.382;10.850;2022-08-25T16:24:17;28.50;99.90
19365;DHT22;9818;48.382;10.850;2022-08-25T16:26:46;28.60;99.90
19365;DHT22;9818;48.382;10.850;2022-08-25T16:29:16;28.60;99.90
19365;DHT22;9818;48.382;10.850;2022-08-25T16:31:45;28.40;99.90
19365;DHT22;9818;48.382;10.850;2022-08-25T16:34:14;28.20;99.90